createdAt,value
2018-05-06T00:02:02.638Z,7.27
2018-05-06T00:04:28.711Z,7.47
2018-05-06T00:06:54.908Z,7.20
2018-05-06T00:09:21.049Z,6.17
2018-05-06T00:11:47.051Z,6.07
2018-05-06T00:14:13.125Z,6.23
2018-05-06T00:16:39.273Z,6.60
2018-05-06T00:19:05.272Z,6.13
2018-05-06T00:21:31.263Z,6.40
2018-05-06T00:23:57.384Z,7.10
2018-05-06T00:26:23.469Z,6.23
2018-05-06T00:28:49.741Z,6.50
2018-05-06T00:31:16.740Z,6.07
2018-05-06T00:33:42.920Z,6.50
2018-05-06T00:36:09.613Z,6.40
2018-05-06T00:38:35.664Z,5.90
2018-05-06T00:41:01.784Z,6.47
2018-05-06T00:43:27.843Z,6.30
2018-05-06T00:45:53.859Z,6.50
2018-05-06T00:48:19.937Z,6.70
2018-05-06T00:50:45.988Z,6.03
2018-05-06T00:53:12.091Z,6.30
2018-05-06T00:55:38.199Z,6.00
2018-05-06T00:58:04.448Z,6.10
2018-05-06T01:00:30.473Z,6.40
2018-05-06T01:02:56.614Z,6.50
2018-05-06T01:05:23.229Z,7.03
2018-05-06T01:07:50.314Z,6.23
2018-05-06T01:10:16.334Z,6.30
2018-05-06T01:12:42.340Z,6.70
2018-05-06T01:15:08.383Z,6.10
2018-05-06T01:17:34.420Z,6.10
2018-05-06T01:20:00.498Z,7.13
2018-05-06T01:22:26.512Z,6.43
2018-05-06T01:24:52.539Z,6.40
2018-05-06T01:27:18.592Z,5.90
2018-05-06T01:29:44.588Z,6.60
2018-05-06T01:32:10.560Z,5.90
2018-05-06T01:34:36.528Z,6.10
2018-05-06T01:37:02.604Z,5.90
2018-05-06T01:39:28.619Z,5.47
2018-05-06T01:41:54.658Z,6.00
2018-05-06T01:44:20.631Z,5.50
2018-05-06T01:46:46.671Z,5.73
2018-05-06T01:49:12.680Z,5.97
2018-05-06T01:51:39.000Z,5.77
2018-05-06T01:54:05.971Z,5.50
2018-05-06T01:56:31.987Z,6.00
2018-05-06T01:58:57.968Z,6.73
2018-05-06T02:01:23.945Z,6.40
2018-05-06T02:03:50.097Z,6.23
2018-05-06T02:06:16.105Z,5.90
2018-05-06T02:08:42.171Z,5.80
2018-05-06T02:11:08.286Z,6.07
2018-05-06T02:13:34.236Z,5.70
2018-05-06T02:16:00.306Z,5.53
2018-05-06T02:18:26.332Z,5.17
2018-05-06T02:20:52.307Z,5.20
2018-05-06T02:23:18.293Z,5.20
2018-05-06T02:25:44.300Z,5.60
2018-05-06T02:28:10.305Z,5.80
2018-05-06T02:30:36.335Z,5.40
2018-05-06T02:33:02.353Z,5.47
2018-05-06T02:35:28.347Z,4.43
2018-05-06T02:37:54.447Z,5.50
2018-05-06T02:40:20.465Z,5.07
2018-05-06T02:42:46.440Z,6.07
2018-05-06T02:45:12.401Z,5.60
2018-05-06T02:47:38.392Z,5.40
2018-05-06T02:50:04.380Z,5.33
2018-05-06T02:52:30.435Z,5.90
2018-05-06T02:54:56.817Z,5.57
2018-05-06T02:57:22.922Z,4.90
2018-05-06T02:59:48.983Z,6.03
2018-05-06T03:02:14.954Z,6.70
2018-05-06T03:04:40.969Z,5.40
2018-05-06T03:07:06.979Z,5.40
2018-05-06T03:09:32.998Z,5.50
2018-05-06T03:11:59.148Z,5.70
2018-05-06T03:14:25.054Z,5.47
2018-05-06T03:16:51.071Z,5.67
2018-05-06T03:19:17.095Z,5.13
2018-05-06T03:21:43.131Z,5.50
2018-05-06T03:24:09.211Z,5.63
2018-05-06T03:26:35.302Z,5.40
2018-05-06T03:29:20.379Z,5.30
2018-05-06T03:31:46.382Z,4.93
2018-05-06T03:34:12.526Z,5.07
2018-05-06T03:36:38.534Z,5.60
2018-05-06T03:39:04.638Z,5.23
2018-05-06T03:41:30.644Z,5.53
2018-05-06T03:43:56.768Z,5.40
2018-05-06T03:46:23.101Z,5.00
2018-05-06T03:48:49.145Z,5.50
2018-05-06T03:51:15.215Z,4.90
2018-05-06T03:53:41.203Z,5.60
2018-05-06T03:59:28.916Z,5.53
2018-05-06T04:01:56.964Z,5.03
2018-05-06T04:04:22.948Z,5.03
2018-05-06T04:06:48.995Z,5.47
2018-05-06T04:09:15.031Z,5.23
2018-05-06T04:11:41.012Z,5.20
2018-05-06T04:14:07.026Z,5.87
2018-05-06T04:16:32.993Z,5.30
2018-05-06T04:18:59.025Z,5.37
2018-05-06T04:21:25.020Z,5.37
2018-05-06T04:23:51.012Z,5.10
2018-05-06T04:26:17.054Z,5.53
2018-05-06T04:28:43.034Z,5.30
2018-05-06T04:31:09.072Z,5.83
2018-05-06T04:33:35.167Z,4.77
2018-05-06T04:36:01.228Z,5.17
2018-05-06T04:38:27.250Z,4.77
2018-05-06T04:40:53.208Z,5.60
2018-05-06T04:43:19.240Z,5.70
2018-05-06T04:45:45.292Z,5.30
2018-05-06T04:48:11.297Z,5.00
2018-05-06T04:50:38.262Z,5.47
2018-05-06T04:53:04.312Z,5.00
2018-05-06T04:55:30.322Z,5.97
2018-05-06T04:57:56.324Z,5.17
2018-05-06T05:00:22.321Z,5.30
2018-05-06T05:02:48.344Z,4.87
2018-05-06T05:05:14.353Z,5.20
2018-05-06T05:07:40.316Z,5.73
2018-05-06T05:10:06.398Z,4.40
2018-05-06T05:12:35.787Z,4.73
2018-05-06T05:15:01.843Z,4.53
2018-05-06T05:17:27.891Z,5.20
2018-05-06T05:19:53.914Z,4.70
2018-05-06T05:22:19.935Z,4.70
2018-05-06T05:24:46.883Z,4.57
2018-05-06T05:27:12.851Z,4.80
2018-05-06T05:29:38.904Z,5.47
2018-05-06T05:32:04.873Z,4.90
2018-05-06T05:34:30.949Z,5.40
2018-05-06T05:36:57.028Z,4.83
2018-05-06T05:39:23.043Z,4.97
2018-05-06T05:41:49.080Z,4.90
2018-05-06T05:44:15.061Z,5.13
2018-05-06T05:46:41.048Z,4.97
2018-05-06T05:49:07.039Z,4.80
2018-05-06T05:51:33.036Z,4.97
2018-05-06T05:53:59.067Z,5.10
2018-05-06T05:56:25.112Z,4.73
2018-05-06T05:58:51.096Z,5.30
2018-05-06T06:01:48.187Z,5.17
2018-05-06T06:04:14.201Z,4.90
2018-05-06T06:06:40.190Z,4.17
2018-05-06T06:09:06.224Z,4.60
2018-05-06T06:11:32.245Z,4.83
2018-05-06T06:13:58.297Z,5.07
2018-05-06T06:16:24.283Z,6.03
2018-05-06T06:18:50.298Z,4.70
2018-05-06T06:21:16.297Z,4.60
2018-05-06T06:23:42.347Z,4.80
2018-05-06T06:26:08.378Z,4.87
2018-05-06T06:28:34.349Z,4.43
2018-05-06T06:31:00.330Z,4.90
2018-05-06T06:33:26.393Z,4.47
2018-05-06T06:35:52.387Z,4.70
2018-05-06T06:38:18.567Z,4.27
2018-05-06T06:40:50.125Z,4.67
2018-05-06T06:43:16.166Z,4.73
2018-05-06T06:45:42.197Z,4.67
2018-05-06T06:48:08.198Z,3.90
2018-05-06T06:50:34.127Z,4.40
2018-05-06T06:53:00.140Z,4.53
2018-05-06T06:55:26.219Z,4.97
2018-05-06T06:57:52.209Z,4.77
2018-05-06T07:00:18.429Z,4.63
2018-05-06T07:02:44.444Z,5.07
2018-05-06T07:05:10.580Z,4.13
2018-05-06T07:07:36.820Z,4.47
2018-05-06T07:10:02.836Z,3.93
2018-05-06T07:12:28.912Z,4.07
2018-05-06T07:14:55.013Z,3.70
2018-05-06T07:17:21.016Z,4.97
2018-05-06T07:19:46.996Z,4.20
2018-05-06T07:22:13.011Z,4.03
2018-05-06T07:24:39.013Z,4.10
2018-05-06T07:27:04.969Z,4.13
2018-05-06T07:29:30.989Z,4.37
2018-05-06T07:31:56.984Z,4.17
2018-05-06T07:34:22.992Z,3.87
2018-05-06T07:36:48.945Z,4.00
2018-05-06T07:39:14.938Z,4.57
2018-05-06T07:41:40.956Z,4.10
2018-05-06T07:44:06.930Z,4.63
2018-05-06T07:46:32.927Z,4.57
2018-05-06T07:48:59.119Z,4.20
2018-05-06T07:51:25.141Z,4.30
2018-05-06T07:53:51.184Z,3.77
2018-05-06T07:56:17.164Z,4.37
2018-05-06T07:58:43.242Z,4.63
2018-05-06T08:01:09.229Z,4.63
2018-05-06T08:03:35.473Z,4.73
2018-05-06T08:06:01.421Z,4.53
2018-05-06T08:08:27.724Z,4.40
2018-05-06T08:10:55.394Z,4.93
2018-05-06T08:13:22.015Z,4.30
2018-05-06T08:15:48.968Z,3.90
2018-05-06T08:18:15.221Z,4.20
2018-05-06T08:20:41.282Z,4.30
2018-05-06T08:23:07.390Z,4.23
2018-05-06T08:42:17.820Z,3.93
2018-05-06T08:44:44.115Z,3.83
2018-05-06T08:47:11.223Z,3.83
2018-05-06T08:49:39.433Z,3.83
2018-05-06T08:52:05.852Z,5.17
2018-05-06T08:54:32.088Z,4.33
2018-05-06T08:56:59.201Z,4.30
2018-05-06T08:59:25.388Z,4.13
2018-05-06T09:01:51.533Z,4.40
2018-05-06T09:04:17.574Z,4.37
2018-05-06T09:06:44.257Z,4.77
2018-05-06T09:09:10.282Z,5.53
2018-05-06T09:11:36.313Z,4.20
2018-05-06T09:14:02.361Z,6.23
2018-05-06T09:16:28.339Z,4.00
2018-05-06T09:18:54.384Z,3.60
2018-05-06T09:21:20.502Z,5.03
2018-05-06T09:23:46.841Z,5.77
2018-05-06T09:26:13.158Z,4.53
2018-05-06T09:28:39.142Z,4.37
2018-05-06T09:31:05.302Z,3.80
2018-05-06T09:33:31.388Z,14.40
2018-05-06T09:35:57.663Z,6.40
2018-05-06T09:38:24.695Z,4.00
2018-05-06T09:40:50.735Z,3.70
2018-05-06T09:43:16.856Z,3.17
2018-05-06T09:45:43.004Z,3.50
2018-05-06T09:48:09.912Z,3.37
2018-05-06T09:50:36.063Z,4.20
2018-05-06T09:53:03.002Z,3.37
2018-05-06T09:55:29.000Z,3.33
2018-05-06T09:57:55.122Z,3.00
2018-05-06T10:00:26.169Z,3.63
2018-05-06T10:02:53.327Z,3.93
2018-05-06T10:05:22.675Z,3.70
2018-05-06T10:07:53.842Z,3.43
2018-05-06T10:10:23.806Z,4.00
2018-05-06T10:12:49.955Z,3.57
2018-05-06T10:15:16.159Z,3.37
2018-05-06T10:17:42.203Z,3.63
2018-05-06T10:20:08.393Z,3.30
2018-05-06T10:22:44.518Z,4.40
2018-05-06T10:25:13.025Z,3.13
2018-05-06T10:27:39.229Z,2.83
2018-05-06T10:30:05.946Z,3.37
2018-05-06T10:32:33.104Z,3.60
2018-05-06T10:49:09.193Z,2.87
2018-05-06T10:51:35.104Z,2.70
2018-05-06T10:54:01.022Z,2.80
2018-05-06T10:56:26.980Z,4.17
2018-05-06T10:58:52.988Z,6.00
2018-05-06T11:01:18.923Z,3.90
2018-05-06T11:03:44.887Z,3.70
2018-05-06T11:06:17.366Z,3.20
2018-05-06T11:08:43.466Z,3.50
2018-05-06T11:11:09.482Z,3.13
2018-05-06T11:13:35.387Z,3.47
2018-05-06T11:16:01.441Z,3.13
2018-05-06T11:18:27.435Z,6.10
2018-05-06T11:20:53.397Z,3.13
2018-05-06T11:23:19.354Z,3.20
2018-05-06T11:25:45.375Z,3.20
2018-05-06T11:28:11.398Z,2.40
2018-05-06T11:30:37.353Z,2.70
2018-05-06T11:33:03.346Z,2.83
2018-05-06T11:35:29.288Z,2.80
2018-05-06T11:37:55.342Z,2.60
2018-05-06T11:40:21.292Z,3.23
2018-05-06T11:42:47.256Z,4.13
2018-05-06T11:45:13.261Z,4.27
2018-05-06T11:47:39.281Z,3.33
2018-05-06T11:50:05.259Z,2.97
2018-05-06T11:52:31.232Z,5.30
2018-05-06T11:54:57.232Z,6.20
2018-05-06T11:57:23.298Z,3.30
2018-05-06T11:59:49.292Z,3.83
2018-05-06T12:02:15.298Z,2.60
2018-05-06T12:04:41.278Z,3.10
2018-05-06T12:07:07.326Z,3.00
2018-05-06T12:09:34.008Z,3.00
2018-05-06T12:12:00.926Z,3.50
2018-05-06T12:14:28.401Z,7.97
2018-05-06T12:16:54.420Z,3.87
2018-05-06T12:19:20.416Z,2.80
2018-05-06T12:21:47.368Z,2.73
2018-05-06T12:24:13.374Z,3.00
2018-05-06T12:26:39.413Z,2.83
2018-05-06T12:29:05.448Z,2.63
2018-05-06T12:31:31.423Z,2.90
2018-05-06T12:33:58.420Z,2.30
2018-05-06T12:36:24.493Z,2.97
2018-05-06T12:38:50.466Z,3.50
2018-05-06T12:41:16.480Z,3.57
2018-05-06T12:43:42.470Z,2.53
2018-05-06T12:46:08.618Z,2.17
2018-05-06T12:48:34.746Z,2.77
2018-05-06T12:51:00.848Z,10.17
2018-05-06T12:53:26.986Z,2.53
2018-05-06T12:55:52.967Z,2.23
2018-05-06T12:58:18.934Z,2.17
2018-05-06T13:00:45.244Z,2.67
2018-05-06T13:03:11.280Z,3.13
2018-05-06T13:05:37.309Z,3.10
2018-05-06T13:08:03.276Z,2.50
2018-05-06T13:10:29.269Z,3.07
2018-05-06T13:12:55.221Z,2.90
2018-05-06T13:15:21.236Z,2.60
2018-05-06T13:17:47.265Z,2.77
2018-05-06T13:20:13.324Z,2.17
2018-05-06T13:22:39.350Z,2.60
2018-05-06T13:25:05.447Z,2.33
2018-05-06T13:27:31.409Z,2.23
2018-05-06T13:29:57.415Z,2.40
2018-05-06T13:32:23.421Z,2.30
2018-05-06T13:34:49.424Z,2.67
2018-05-06T13:37:15.408Z,2.90
2018-05-06T13:39:41.410Z,2.57
2018-05-06T13:42:07.393Z,2.10
2018-05-06T13:44:33.497Z,2.60
2018-05-06T13:46:59.581Z,2.37
2018-05-06T13:49:25.565Z,2.50
2018-05-06T13:51:51.585Z,3.27
2018-05-06T13:54:17.552Z,3.83
2018-05-06T13:56:43.501Z,3.60
2018-05-06T13:59:09.549Z,2.33
2018-05-06T14:01:35.569Z,3.03
2018-05-06T14:04:02.574Z,2.70
2018-05-06T14:06:28.669Z,2.80
2018-05-06T14:08:54.694Z,2.43
2018-05-06T14:11:21.510Z,2.90
2018-05-06T14:13:47.501Z,2.80
2018-05-06T14:16:13.468Z,2.30
2018-05-06T14:18:39.460Z,3.50
2018-05-06T14:21:05.437Z,2.40
2018-05-06T14:23:31.510Z,2.73
2018-05-06T14:25:57.527Z,2.10
2018-05-06T14:28:23.570Z,2.43
2018-05-06T14:30:49.586Z,2.50
2018-05-06T14:33:15.595Z,2.40
2018-05-06T14:35:41.581Z,2.30
2018-05-06T14:38:07.567Z,2.97
2018-05-06T14:40:33.829Z,2.90
2018-05-06T14:42:59.824Z,2.80
2018-05-06T14:45:25.925Z,2.90
2018-05-06T14:48:04.584Z,2.13
2018-05-06T14:50:30.794Z,2.60
2018-05-06T14:52:56.902Z,2.50
2018-05-06T14:55:23.012Z,2.50
2018-05-06T15:12:01.469Z,2.00
2018-05-06T15:14:34.541Z,2.20
2018-05-06T15:17:00.545Z,2.50
2018-05-06T15:19:26.582Z,2.20
2018-05-06T15:21:52.598Z,2.10
2018-05-06T15:24:18.571Z,2.03
2018-05-06T15:26:44.622Z,2.30
2018-05-06T15:29:10.648Z,2.13
2018-05-06T15:31:36.668Z,2.10
2018-05-06T15:34:03.759Z,2.20
2018-05-06T15:36:29.827Z,6.40
2018-05-06T15:38:56.529Z,2.60
2018-05-06T15:41:22.648Z,10.03
2018-05-06T15:43:48.880Z,11.13
2018-05-06T15:46:14.949Z,3.40
2018-05-06T15:48:41.059Z,2.10
2018-05-06T15:51:07.370Z,4.07
2018-05-06T15:53:33.497Z,3.80
2018-05-06T15:55:59.582Z,3.03
2018-05-06T15:58:25.743Z,2.07
2018-05-06T16:00:51.840Z,2.27
2018-05-06T16:03:30.203Z,2.70
2018-05-06T16:05:56.324Z,2.23
2018-05-06T16:08:22.391Z,2.10
2018-05-06T16:10:50.515Z,2.60
2018-05-06T16:13:17.848Z,2.00
2018-05-06T16:15:43.886Z,2.63
2018-05-06T16:18:10.018Z,2.63
2018-05-06T16:20:36.812Z,3.03
2018-05-06T16:23:02.946Z,3.03
2018-05-06T16:25:29.970Z,3.40
2018-05-06T16:27:56.054Z,3.07
2018-05-06T16:30:22.172Z,3.43
2018-05-06T16:47:02.193Z,3.87
2018-05-06T16:49:28.510Z,3.57
2018-05-06T16:51:54.721Z,3.73
2018-05-06T16:54:20.919Z,3.10
2018-05-06T16:56:46.972Z,4.10
2018-05-06T16:59:13.727Z,4.50
2018-05-06T17:01:40.012Z,3.70
2018-05-06T17:04:06.138Z,3.57
2018-05-06T17:06:32.991Z,3.60
2018-05-06T17:09:03.354Z,3.97
2018-05-06T17:11:29.436Z,3.30
2018-05-06T17:13:55.448Z,3.43
2018-05-06T17:16:21.696Z,3.47
2018-05-06T17:18:47.956Z,12.60
2018-05-06T17:21:14.124Z,7.40
2018-05-06T17:23:40.640Z,3.40
2018-05-06T17:26:07.220Z,3.10
2018-05-06T17:28:33.302Z,3.13
2018-05-06T17:31:00.701Z,3.60
2018-05-06T17:33:26.728Z,4.10
2018-05-06T17:35:52.795Z,3.73
2018-05-06T17:52:32.230Z,3.47
2018-05-06T17:54:58.275Z,4.43
2018-05-06T17:57:24.590Z,3.60
2018-05-06T17:59:50.729Z,4.23
2018-05-06T18:02:16.859Z,3.30
2018-05-06T18:04:42.893Z,3.57
2018-05-06T18:07:09.408Z,4.30
2018-05-06T18:09:35.416Z,3.80
2018-05-06T18:12:02.212Z,5.07
2018-05-06T18:14:28.928Z,3.30
2018-05-06T18:16:55.037Z,3.87
2018-05-06T18:19:21.147Z,3.20
2018-05-06T18:21:48.318Z,3.60
2018-05-06T18:24:14.391Z,3.90
2018-05-06T18:26:41.554Z,6.00
2018-05-06T18:29:07.711Z,3.17
2018-05-06T18:31:33.732Z,3.73
2018-05-06T18:34:00.125Z,3.37
2018-05-06T18:36:26.220Z,6.63
2018-05-06T18:38:52.375Z,4.47
2018-05-06T18:41:18.393Z,4.47
2018-05-06T18:43:44.404Z,3.53
2018-05-06T18:46:11.263Z,3.57
2018-05-06T18:48:37.304Z,3.70
2018-05-06T18:51:03.361Z,3.47
2018-05-06T18:53:29.490Z,3.70
2018-05-06T18:55:55.976Z,3.97
2018-05-06T18:58:22.727Z,3.40
2018-05-06T19:00:48.731Z,3.43
2018-05-06T19:03:16.969Z,3.60
2018-05-06T19:05:43.506Z,3.10
2018-05-06T19:08:11.902Z,3.30
2018-05-06T19:10:38.281Z,3.80
2018-05-06T19:13:04.362Z,3.37
2018-05-06T19:15:30.612Z,3.23
2018-05-06T19:17:56.808Z,3.33
2018-05-06T19:20:23.669Z,2.93
2018-05-06T19:22:50.709Z,3.40
2018-05-06T19:25:16.884Z,3.40
2018-05-06T19:27:43.805Z,2.93
2018-05-06T19:30:10.742Z,3.30
2018-05-06T19:32:36.961Z,3.07
2018-05-06T19:35:03.003Z,3.37
2018-05-06T19:37:29.139Z,3.13
2018-05-06T19:39:59.945Z,3.40
2018-05-06T19:42:37.628Z,2.87
2018-05-06T19:45:04.297Z,2.87
2018-05-06T19:47:30.454Z,3.10
2018-05-06T20:06:44.170Z,2.75
2018-05-06T20:09:11.043Z,3.90
2018-05-06T20:11:40.498Z,3.17
2018-05-06T20:14:06.612Z,3.40
2018-05-06T20:16:33.673Z,3.23
2018-05-06T20:18:59.807Z,2.87
2018-05-06T20:21:26.134Z,3.10
2018-05-06T20:23:52.612Z,3.73
2018-05-06T20:26:19.144Z,3.60
2018-05-06T20:28:45.566Z,3.10
2018-05-06T20:31:11.643Z,3.17
2018-05-06T20:33:37.630Z,3.07
2018-05-06T20:36:04.903Z,3.13
2018-05-06T20:38:31.884Z,2.83
2018-05-06T20:40:58.247Z,3.63
2018-05-06T20:43:24.240Z,2.80
2018-05-06T20:45:50.287Z,3.60
2018-05-06T20:48:16.300Z,3.83
2018-05-06T20:50:42.311Z,3.43
2018-05-06T21:09:53.516Z,3.50
2018-05-06T21:12:19.598Z,3.40
2018-05-06T21:14:46.527Z,3.53
2018-05-06T21:17:12.654Z,3.33
2018-05-06T21:19:38.750Z,3.10
2018-05-06T21:22:04.772Z,3.43
2018-05-06T21:24:31.861Z,3.30
2018-05-06T21:26:58.320Z,3.30
2018-05-06T21:29:24.543Z,3.50
2018-05-06T21:31:50.661Z,3.60
2018-05-06T21:34:16.633Z,3.43
2018-05-06T21:36:42.708Z,3.53
2018-05-06T21:39:08.759Z,3.50
2018-05-06T21:41:34.746Z,3.70
2018-05-06T21:44:00.839Z,3.30
2018-05-06T21:46:26.949Z,3.40
2018-05-06T21:48:53.011Z,3.80
2018-05-06T21:51:19.028Z,3.20
2018-05-06T21:53:45.073Z,3.47
2018-05-06T21:56:11.133Z,3.27
2018-05-06T21:58:37.292Z,3.23
2018-05-06T22:01:05.183Z,3.70
2018-05-06T22:03:31.193Z,3.90
2018-05-06T22:05:57.283Z,3.60
2018-05-06T22:08:23.304Z,4.20
2018-05-06T22:10:49.393Z,3.40
2018-05-06T22:13:15.590Z,4.00
2018-05-06T22:15:41.805Z,3.40
2018-05-06T22:18:07.856Z,3.83
2018-05-06T22:20:33.905Z,3.80
2018-05-06T22:23:00.043Z,4.10
2018-05-06T22:25:26.131Z,3.30
2018-05-06T22:27:52.257Z,3.67
2018-05-06T22:30:18.430Z,3.90
2018-05-06T22:32:44.559Z,3.60
2018-05-06T22:35:10.569Z,3.27
2018-05-06T22:37:36.579Z,3.43
2018-05-06T22:40:02.681Z,3.90
2018-05-06T22:42:28.719Z,3.40
2018-05-06T22:44:54.704Z,3.47
2018-05-06T22:47:20.688Z,3.63
2018-05-06T22:49:46.703Z,3.40
2018-05-06T22:52:12.684Z,3.17
2018-05-06T22:54:38.693Z,3.37
2018-05-06T22:57:04.633Z,3.67
2018-05-06T22:59:30.629Z,3.77
2018-05-06T23:01:56.584Z,3.77
2018-05-06T23:04:22.740Z,3.53
2018-05-06T23:06:48.726Z,3.90
2018-05-06T23:09:14.720Z,3.57
2018-05-06T23:11:40.717Z,3.30
2018-05-06T23:14:06.809Z,4.50
2018-05-06T23:16:32.819Z,3.93
2018-05-06T23:18:58.795Z,3.40
2018-05-06T23:21:24.831Z,3.20
2018-05-06T23:23:50.856Z,3.60
2018-05-06T23:26:16.953Z,3.50
2018-05-06T23:28:43.028Z,3.43
2018-05-06T23:31:09.590Z,3.60
2018-05-06T23:50:19.574Z,3.63
2018-05-06T23:52:45.598Z,3.50
2018-05-06T23:55:11.667Z,3.17
2018-05-06T23:57:37.604Z,3.73
